sensor_id;sensor_type;location;lat;lon;timestamp;P1;durP1;ratioP1;P2;durP2;ratioP2
80115;SDS011;69423;47.608;19.366;2024-03-23T00:52:06;40.33;;;39.00;;
80115;SDS011;69423;47.608;19.366;2024-03-23T00:53:09;40.07;;;38.83;;
80115;SDS011;69423;47.608;19.366;2024-03-23T00:54:12;41.03;;;39.57;;
80115;SDS011;69423;47.608;19.366;2024-03-23T00:54:43;41.20;;;39.80;;
80115;SDS011;69423;47.608;19.366;2024-03-23T00:55:14;40.73;;;39.57;;
80115;SDS011;69423;47.608;19.366;2024-03-23T00:55:45;39.63;;;38.37;;
80115;SDS011;69423;47.608;19.366;2024-03-23T00:56:16;40.87;;;39.40;;
80115;SDS011;69423;47.608;19.366;2024-03-23T00:56:47;41.40;;;40.07;;
80115;SDS011;69423;47.608;19.366;2024-03-23T00:57:18;39.63;;;38.37;;
80115;SDS011;69423;47.608;19.366;2024-03-23T00:57:49;40.50;;;39.20;;
80115;SDS011;69423;47.608;19.366;2024-03-23T00:58:20;41.93;;;40.53;;
80115;SDS011;69423;47.608;19.366;2024-03-23T00:58:51;43.53;;;41.77;;
80115;SDS011;69423;47.608;19.366;2024-03-23T00:59:22;41.87;;;39.97;;
80115;SDS011;69423;47.608;19.366;2024-03-23T00:59:57;42.87;;;40.70;;
80115;SDS011;69423;47.608;19.366;2024-03-23T01:00:28;41.90;;;40.00;;
80115;SDS011;69423;47.608;19.366;2024-03-23T01:00:59;40.40;;;38.97;;
80115;SDS011;69423;47.608;19.366;2024-03-23T01:01:30;41.20;;;39.93;;
80115;SDS011;69423;47.608;19.366;2024-03-23T01:02:01;40.97;;;39.70;;
80115;SDS011;69423;47.608;19.366;2024-03-23T01:02:32;40.67;;;39.27;;
80115;SDS011;69423;47.608;19.366;2024-03-23T01:03:04;41.33;;;39.83;;
80115;SDS011;69423;47.608;19.366;2024-03-23T01:03:35;42.30;;;40.33;;
80115;SDS011;69423;47.608;19.366;2024-03-23T01:04:06;43.53;;;41.27;;
80115;SDS011;69423;47.608;19.366;2024-03-23T01:04:37;41.27;;;39.70;;
80115;SDS011;69423;47.608;19.366;2024-03-23T01:05:08;41.57;;;40.20;;
80115;SDS011;69423;47.608;19.366;2024-03-23T01:05:39;41.43;;;40.07;;
80115;SDS011;69423;47.608;19.366;2024-03-23T01:06:10;42.57;;;40.83;;
80115;SDS011;69423;47.608;19.366;2024-03-23T01:06:41;41.47;;;40.20;;
80115;SDS011;69423;47.608;19.366;2024-03-23T01:07:12;41.87;;;40.37;;
80115;SDS011;69423;47.608;19.366;2024-03-23T01:07:43;41.97;;;40.27;;
80115;SDS011;69423;47.608;19.366;2024-03-23T01:08:14;41.77;;;40.43;;
80115;SDS011;69423;47.608;19.366;2024-03-23T01:08:45;40.77;;;39.73;;
80115;SDS011;69423;47.608;19.366;2024-03-23T01:09:16;41.60;;;40.40;;
80115;SDS011;69423;47.608;19.366;2024-03-23T01:09:47;41.47;;;40.03;;
80115;SDS011;69423;47.608;19.366;2024-03-23T01:10:18;42.83;;;41.37;;
80115;SDS011;69423;47.608;19.366;2024-03-23T01:10:59;41.80;;;40.27;;
80115;SDS011;69423;47.608;19.366;2024-03-23T01:11:31;42.57;;;40.93;;
80115;SDS011;69423;47.608;19.366;2024-03-23T01:12:02;42.50;;;41.17;;
80115;SDS011;69423;47.608;19.366;2024-03-23T01:12:33;42.23;;;40.73;;
80115;SDS011;69423;47.608;19.366;2024-03-23T01:13:04;42.43;;;40.90;;
80115;SDS011;69423;47.608;19.366;2024-03-23T01:13:35;40.87;;;39.43;;
80115;SDS011;69423;47.608;19.366;2024-03-23T01:14:06;40.63;;;39.20;;
80115;SDS011;69423;47.608;19.366;2024-03-23T01:14:37;39.23;;;37.97;;
80115;SDS011;69423;47.608;19.366;2024-03-23T01:15:08;39.00;;;37.67;;
80115;SDS011;69423;47.608;19.366;2024-03-23T01:15:40;40.73;;;39.23;;
80115;SDS011;69423;47.608;19.366;2024-03-23T01:16:11;41.20;;;39.63;;
80115;SDS011;69423;47.608;19.366;2024-03-23T01:16:42;40.80;;;39.30;;
80115;SDS011;69423;47.608;19.366;2024-03-23T01:17:13;40.00;;;38.27;;
80115;SDS011;69423;47.608;19.366;2024-03-23T01:17:44;40.33;;;38.77;;
80115;SDS011;69423;47.608;19.366;2024-03-23T01:18:15;40.77;;;38.87;;
80115;SDS011;69423;47.608;19.366;2024-03-23T01:18:46;39.17;;;37.40;;
80115;SDS011;69423;47.608;19.366;2024-03-23T01:19:17;40.63;;;39.07;;
80115;SDS011;69423;47.608;19.366;2024-03-23T01:19:48;40.47;;;39.00;;
80115;SDS011;69423;47.608;19.366;2024-03-23T01:20:19;41.83;;;40.47;;
80115;SDS011;69423;47.608;19.366;2024-03-23T01:20:50;40.87;;;39.40;;
80115;SDS011;69423;47.608;19.366;2024-03-23T01:21:21;40.73;;;39.27;;
80115;SDS011;69423;47.608;19.366;2024-03-23T01:21:52;40.90;;;39.43;;
80115;SDS011;69423;47.608;19.366;2024-03-23T01:22:23;38.90;;;37.90;;
80115;SDS011;69423;47.608;19.366;2024-03-23T01:22:54;39.90;;;38.60;;
80115;SDS011;69423;47.608;19.366;2024-03-23T01:23:25;41.90;;;40.43;;
80115;SDS011;69423;47.608;19.366;2024-03-23T01:23:56;40.10;;;38.67;;
80115;SDS011;69423;47.608;19.366;2024-03-23T01:24:27;38.30;;;37.23;;
80115;SDS011;69423;47.608;19.366;2024-03-23T01:24:58;37.60;;;36.53;;
80115;SDS011;69423;47.608;19.366;2024-03-23T01:25:29;38.37;;;37.40;;
80115;SDS011;69423;47.608;19.366;2024-03-23T01:26:00;40.13;;;38.63;;
80115;SDS011;69423;47.608;19.366;2024-03-23T01:26:31;39.67;;;38.37;;
80115;SDS011;69423;47.608;19.366;2024-03-23T01:27:02;39.10;;;37.93;;
80115;SDS011;69423;47.608;19.366;2024-03-23T01:27:34;37.93;;;36.87;;
80115;SDS011;69423;47.608;19.366;2024-03-23T01:28:05;39.33;;;38.00;;
80115;SDS011;69423;47.608;19.366;2024-03-23T01:28:36;40.03;;;38.57;;
80115;SDS011;69423;47.608;19.366;2024-03-23T01:29:07;39.67;;;38.27;;
80115;SDS011;69423;47.608;19.366;2024-03-23T01:29:39;40.03;;;38.70;;
80115;SDS011;69423;47.608;19.366;2024-03-23T01:30:10;40.50;;;38.97;;
80115;SDS011;69423;47.608;19.366;2024-03-23T01:30:41;40.77;;;39.40;;
80115;SDS011;69423;47.608;19.366;2024-03-23T01:31:12;38.90;;;37.70;;
80115;SDS011;69423;47.608;19.366;2024-03-23T01:31:43;38.53;;;37.23;;
80115;SDS011;69423;47.608;19.366;2024-03-23T01:32:14;39.30;;;37.97;;
80115;SDS011;69423;47.608;19.366;2024-03-23T01:32:45;39.00;;;37.63;;
80115;SDS011;69423;47.608;19.366;2024-03-23T01:33:17;39.80;;;38.63;;
80115;SDS011;69423;47.608;19.366;2024-03-23T01:33:48;38.57;;;37.47;;
80115;SDS011;69423;47.608;19.366;2024-03-23T01:34:19;39.50;;;38.37;;
80115;SDS011;69423;47.608;19.366;2024-03-23T01:34:51;39.23;;;37.97;;
80115;SDS011;69423;47.608;19.366;2024-03-23T01:35:22;40.43;;;39.03;;
80115;SDS011;69423;47.608;19.366;2024-03-23T01:35:53;39.37;;;37.60;;
80115;SDS011;69423;47.608;19.366;2024-03-23T01:36:24;41.27;;;39.37;;
80115;SDS011;69423;47.608;19.366;2024-03-23T01:36:55;41.17;;;39.90;;
80115;SDS011;69423;47.608;19.366;2024-03-23T01:37:26;41.20;;;40.07;;
80115;SDS011;69423;47.608;19.366;2024-03-23T01:37:57;41.23;;;39.93;;
80115;SDS011;69423;47.608;19.366;2024-03-23T01:38:28;39.90;;;38.67;;
80115;SDS011;69423;47.608;19.366;2024-03-23T01:38:59;39.57;;;38.10;;
80115;SDS011;69423;47.608;19.366;2024-03-23T01:39:30;40.30;;;38.73;;
80115;SDS011;69423;47.608;19.366;2024-03-23T01:40:01;40.73;;;39.37;;
80115;SDS011;69423;47.608;19.366;2024-03-23T01:40:34;42.20;;;40.77;;
80115;SDS011;69423;47.608;19.366;2024-03-23T01:41:05;41.03;;;39.63;;
80115;SDS011;69423;47.608;19.366;2024-03-23T01:41:36;41.13;;;39.60;;
80115;SDS011;69423;47.608;19.366;2024-03-23T01:42:10;40.77;;;39.40;;
80115;SDS011;69423;47.608;19.366;2024-03-23T01:42:41;40.03;;;38.70;;
80115;SDS011;69423;47.608;19.366;2024-03-23T01:43:12;40.07;;;38.60;;
80115;SDS011;69423;47.608;19.366;2024-03-23T01:43:43;40.70;;;39.23;;
80115;SDS011;69423;47.608;19.366;2024-03-23T01:44:14;41.43;;;39.80;;
80115;SDS011;69423;47.608;19.366;2024-03-23T01:44:46;43.17;;;41.23;;
80115;SDS011;69423;47.608;19.366;2024-03-23T01:45:17;40.17;;;38.73;;
80115;SDS011;69423;47.608;19.366;2024-03-23T01:45:48;38.60;;;37.47;;
80115;SDS011;69423;47.608;19.366;2024-03-23T01:46:19;40.53;;;39.27;;
80115;SDS011;69423;47.608;19.366;2024-03-23T01:46:50;39.50;;;38.20;;
80115;SDS011;69423;47.608;19.366;2024-03-23T01:47:22;39.83;;;38.47;;
80115;SDS011;69423;47.608;19.366;2024-03-23T01:47:53;38.73;;;37.60;;
80115;SDS011;69423;47.608;19.366;2024-03-23T01:48:24;38.67;;;37.37;;
80115;SDS011;69423;47.608;19.366;2024-03-23T01:48:55;38.97;;;37.53;;
80115;SDS011;69423;47.608;19.366;2024-03-23T01:49:26;39.80;;;38.27;;
80115;SDS011;69423;47.608;19.366;2024-03-23T01:49:57;40.07;;;38.73;;
80115;SDS011;69423;47.608;19.366;2024-03-23T01:50:28;39.87;;;38.77;;
80115;SDS011;69423;47.608;19.366;2024-03-23T01:51:03;40.10;;;38.90;;
80115;SDS011;69423;47.608;19.366;2024-03-23T01:51:35;40.53;;;38.70;;
80115;SDS011;69423;47.608;19.366;2024-03-23T01:52:08;39.23;;;37.83;;
80115;SDS011;69423;47.608;19.366;2024-03-23T01:52:39;38.37;;;36.93;;
80115;SDS011;69423;47.608;19.366;2024-03-23T01:53:10;40.60;;;38.83;;
80115;SDS011;69423;47.608;19.366;2024-03-23T01:53:42;40.27;;;38.73;;
80115;SDS011;69423;47.608;19.366;2024-03-23T01:54:13;41.53;;;39.67;;
80115;SDS011;69423;47.608;19.366;2024-03-23T01:54:45;41.13;;;39.17;;
80115;SDS011;69423;47.608;19.366;2024-03-23T01:55:16;41.50;;;39.60;;
80115;SDS011;69423;47.608;19.366;2024-03-23T01:55:47;40.80;;;38.97;;
80115;SDS011;69423;47.608;19.366;2024-03-23T01:56:18;38.63;;;37.17;;
80115;SDS011;69423;47.608;19.366;2024-03-23T01:56:49;38.73;;;37.30;;
80115;SDS011;69423;47.608;19.366;2024-03-23T01:57:20;38.47;;;37.10;;
80115;SDS011;69423;47.608;19.366;2024-03-23T01:57:52;39.17;;;37.77;;
80115;SDS011;69423;47.608;19.366;2024-03-23T01:58:23;40.47;;;38.77;;
80115;SDS011;69423;47.608;19.366;2024-03-23T01:58:54;40.90;;;38.93;;
80115;SDS011;69423;47.608;19.366;2024-03-23T01:59:25;38.20;;;36.70;;
80115;SDS011;69423;47.608;19.366;2024-03-23T01:59:56;38.83;;;37.50;;
80115;SDS011;69423;47.608;19.366;2024-03-23T02:00:27;37.93;;;36.87;;
80115;SDS011;69423;47.608;19.366;2024-03-23T02:00:58;37.50;;;36.13;;
80115;SDS011;69423;47.608;19.366;2024-03-23T02:01:29;37.10;;;35.90;;
80115;SDS011;69423;47.608;19.366;2024-03-23T02:02:01;36.53;;;35.17;;
80115;SDS011;69423;47.608;19.366;2024-03-23T02:02:32;37.77;;;36.43;;
80115;SDS011;69423;47.608;19.366;2024-03-23T02:03:03;39.10;;;37.80;;
80115;SDS011;69423;47.608;19.366;2024-03-23T02:03:53;38.70;;;37.00;;
80115;SDS011;69423;47.608;19.366;2024-03-23T02:04:24;38.43;;;36.53;;
80115;SDS011;69423;47.608;19.366;2024-03-23T02:04:55;38.90;;;37.17;;
80115;SDS011;69423;47.608;19.366;2024-03-23T02:05:26;39.30;;;37.33;;
80115;SDS011;69423;47.608;19.366;2024-03-23T02:05:57;38.23;;;36.27;;
80115;SDS011;69423;47.608;19.366;2024-03-23T02:06:28;37.23;;;35.53;;
80115;SDS011;69423;47.608;19.366;2024-03-23T02:07:00;38.30;;;36.63;;
80115;SDS011;69423;47.608;19.366;2024-03-23T02:07:31;36.53;;;35.17;;
80115;SDS011;69423;47.608;19.366;2024-03-23T02:08:02;37.63;;;36.17;;
80115;SDS011;69423;47.608;19.366;2024-03-23T02:08:33;38.10;;;36.63;;
80115;SDS011;69423;47.608;19.366;2024-03-23T02:09:05;38.30;;;37.03;;
80115;SDS011;69423;47.608;19.366;2024-03-23T02:09:36;38.47;;;37.37;;
80115;SDS011;69423;47.608;19.366;2024-03-23T02:10:07;37.90;;;36.50;;
80115;SDS011;69423;47.608;19.366;2024-03-23T02:10:40;36.60;;;35.33;;
80115;SDS011;69423;47.608;19.366;2024-03-23T02:11:11;37.13;;;35.50;;
80115;SDS011;69423;47.608;19.366;2024-03-23T02:11:42;37.10;;;35.47;;
80115;SDS011;69423;47.608;19.366;2024-03-23T02:12:13;37.17;;;35.57;;
80115;SDS011;69423;47.608;19.366;2024-03-23T02:12:44;36.73;;;35.33;;
80115;SDS011;69423;47.608;19.366;2024-03-23T02:13:15;36.80;;;35.17;;
80115;SDS011;69423;47.608;19.366;2024-03-23T02:13:46;38.67;;;36.93;;
80115;SDS011;69423;47.608;19.366;2024-03-23T02:14:17;37.20;;;35.77;;
80115;SDS011;69423;47.608;19.366;2024-03-23T02:14:48;37.03;;;35.90;;
80115;SDS011;69423;47.608;19.366;2024-03-23T02:15:19;37.77;;;36.43;;
80115;SDS011;69423;47.608;19.366;2024-03-23T02:15:51;38.13;;;36.33;;
80115;SDS011;69423;47.608;19.366;2024-03-23T02:16:22;37.03;;;35.40;;
80115;SDS011;69423;47.608;19.366;2024-03-23T02:16:53;37.30;;;35.60;;
80115;SDS011;69423;47.608;19.366;2024-03-23T02:17:24;37.47;;;35.90;;
80115;SDS011;69423;47.608;19.366;2024-03-23T02:17:55;36.10;;;34.57;;
80115;SDS011;69423;47.608;19.366;2024-03-23T02:18:26;35.37;;;33.93;;
80115;SDS011;69423;47.608;19.366;2024-03-23T02:18:57;36.17;;;34.77;;
80115;SDS011;69423;47.608;19.366;2024-03-23T02:19:28;36.57;;;35.33;;
80115;SDS011;69423;47.608;19.366;2024-03-23T02:19:59;34.97;;;33.87;;
80115;SDS011;69423;47.608;19.366;2024-03-23T02:20:30;34.83;;;33.77;;
80115;SDS011;69423;47.608;19.366;2024-03-23T02:21:01;35.07;;;33.83;;
80115;SDS011;69423;47.608;19.366;2024-03-23T02:21:33;36.17;;;34.83;;
80115;SDS011;69423;47.608;19.366;2024-03-23T02:22:04;37.07;;;35.60;;
80115;SDS011;69423;47.608;19.366;2024-03-23T02:22:36;36.07;;;34.80;;
80115;SDS011;69423;47.608;19.366;2024-03-23T02:23:14;35.80;;;34.57;;
80115;SDS011;69423;47.608;19.366;2024-03-23T02:23:46;35.77;;;34.37;;
80115;SDS011;69423;47.608;19.366;2024-03-23T02:24:17;37.20;;;35.77;;
80115;SDS011;69423;47.608;19.366;2024-03-23T02:24:48;36.43;;;35.03;;
80115;SDS011;69423;47.608;19.366;2024-03-23T02:25:19;36.17;;;34.77;;
80115;SDS011;69423;47.608;19.366;2024-03-23T02:25:50;36.10;;;35.00;;
80115;SDS011;69423;47.608;19.366;2024-03-23T02:26:21;35.63;;;34.33;;
80115;SDS011;69423;47.608;19.366;2024-03-23T02:26:52;35.33;;;33.83;;
80115;SDS011;69423;47.608;19.366;2024-03-23T02:27:24;37.47;;;35.80;;
80115;SDS011;69423;47.608;19.366;2024-03-23T02:27:55;36.50;;;34.80;;
80115;SDS011;69423;47.608;19.366;2024-03-23T02:28:26;35.03;;;33.73;;
80115;SDS011;69423;47.608;19.366;2024-03-23T02:28:57;35.27;;;34.03;;
80115;SDS011;69423;47.608;19.366;2024-03-23T02:29:28;36.07;;;34.70;;
80115;SDS011;69423;47.608;19.366;2024-03-23T02:29:59;36.27;;;34.60;;
80115;SDS011;69423;47.608;19.366;2024-03-23T02:30:30;36.07;;;34.17;;
80115;SDS011;69423;47.608;19.366;2024-03-23T02:31:01;36.33;;;34.33;;
80115;SDS011;69423;47.608;19.366;2024-03-23T02:31:32;35.03;;;33.53;;
80115;SDS011;69423;47.608;19.366;2024-03-23T02:32:04;35.73;;;34.37;;
80115;SDS011;69423;47.608;19.366;2024-03-23T02:32:35;36.30;;;34.80;;
80115;SDS011;69423;47.608;19.366;2024-03-23T02:33:06;35.30;;;33.97;;
80115;SDS011;69423;47.608;19.366;2024-03-23T02:33:37;35.70;;;34.37;;
80115;SDS011;69423;47.608;19.366;2024-03-23T02:34:08;34.00;;;33.03;;
80115;SDS011;69423;47.608;19.366;2024-03-23T02:34:39;34.37;;;33.57;;
80115;SDS011;69423;47.608;19.366;2024-03-23T02:35:10;34.13;;;33.10;;
80115;SDS011;69423;47.608;19.366;2024-03-23T02:35:42;35.27;;;34.07;;
80115;SDS011;69423;47.608;19.366;2024-03-23T02:36:13;35.47;;;34.30;;
80115;SDS011;69423;47.608;19.366;2024-03-23T02:36:45;34.50;;;33.50;;
80115;SDS011;69423;47.608;19.366;2024-03-23T02:37:15;34.00;;;32.80;;
80115;SDS011;69423;47.608;19.366;2024-03-23T02:37:47;34.77;;;33.17;;
80115;SDS011;69423;47.608;19.366;2024-03-23T02:38:21;35.50;;;33.87;;
80115;SDS011;69423;47.608;19.366;2024-03-23T02:38:52;34.27;;;33.00;;
80115;SDS011;69423;47.608;19.366;2024-03-23T02:39:23;34.37;;;33.13;;
80115;SDS011;69423;47.608;19.366;2024-03-23T02:39:54;34.77;;;33.30;;
80115;SDS011;69423;47.608;19.366;2024-03-23T02:40:25;34.27;;;32.87;;
80115;SDS011;69423;47.608;19.366;2024-03-23T02:41:01;33.80;;;32.33;;
80115;SDS011;69423;47.608;19.366;2024-03-23T02:41:35;34.00;;;32.47;;
80115;SDS011;69423;47.608;19.366;2024-03-23T02:42:07;34.97;;;33.40;;
80115;SDS011;69423;47.608;19.366;2024-03-23T02:42:38;36.13;;;34.97;;
80115;SDS011;69423;47.608;19.366;2024-03-23T02:43:09;34.63;;;33.53;;
80115;SDS011;69423;47.608;19.366;2024-03-23T02:43:40;34.60;;;33.33;;
80115;SDS011;69423;47.608;19.366;2024-03-23T02:44:11;34.87;;;33.50;;
80115;SDS011;69423;47.608;19.366;2024-03-23T02:44:42;35.80;;;34.17;;
80115;SDS011;69423;47.608;19.366;2024-03-23T02:45:13;34.87;;;33.37;;
80115;SDS011;69423;47.608;19.366;2024-03-23T02:45:44;34.93;;;33.50;;
80115;SDS011;69423;47.608;19.366;2024-03-23T02:46:15;35.30;;;33.90;;
80115;SDS011;69423;47.608;19.366;2024-03-23T02:46:46;34.70;;;33.57;;
80115;SDS011;69423;47.608;19.366;2024-03-23T02:47:17;35.63;;;34.30;;
80115;SDS011;69423;47.608;19.366;2024-03-23T02:47:48;34.50;;;33.30;;
80115;SDS011;69423;47.608;19.366;2024-03-23T02:48:22;33.93;;;32.87;;
80115;SDS011;69423;47.608;19.366;2024-03-23T02:48:54;33.73;;;32.57;;
80115;SDS011;69423;47.608;19.366;2024-03-23T02:49:27;34.67;;;33.27;;
80115;SDS011;69423;47.608;19.366;2024-03-23T02:49:58;35.03;;;33.37;;
80115;SDS011;69423;47.608;19.366;2024-03-23T02:50:29;34.60;;;33.03;;
80115;SDS011;69423;47.608;19.366;2024-03-23T02:51:00;34.80;;;33.27;;
80115;SDS011;69423;47.608;19.366;2024-03-23T02:51:31;33.63;;;32.53;;
80115;SDS011;69423;47.608;19.366;2024-03-23T02:52:02;33.27;;;32.10;;
80115;SDS011;69423;47.608;19.366;2024-03-23T02:52:33;34.53;;;33.07;;
80115;SDS011;69423;47.608;19.366;2024-03-23T02:53:04;34.87;;;33.23;;
80115;SDS011;69423;47.608;19.366;2024-03-23T02:53:35;35.73;;;34.27;;
80115;SDS011;69423;47.608;19.366;2024-03-23T02:54:06;33.97;;;32.77;;
80115;SDS011;69423;47.608;19.366;2024-03-23T02:54:37;34.67;;;33.40;;
80115;SDS011;69423;47.608;19.366;2024-03-23T02:55:08;35.47;;;33.90;;
80115;SDS011;69423;47.608;19.366;2024-03-23T02:55:39;35.20;;;33.67;;
80115;SDS011;69423;47.608;19.366;2024-03-23T02:56:10;35.13;;;33.67;;
80115;SDS011;69423;47.608;19.366;2024-03-23T02:56:46;34.80;;;33.43;;
80115;SDS011;69423;47.608;19.366;2024-03-23T02:57:17;34.80;;;33.43;;
80115;SDS011;69423;47.608;19.366;2024-03-23T02:57:48;35.10;;;33.67;;
80115;SDS011;69423;47.608;19.366;2024-03-23T02:58:19;34.73;;;33.50;;
80115;SDS011;69423;47.608;19.366;2024-03-23T02:58:50;34.73;;;33.47;;
80115;SDS011;69423;47.608;19.366;2024-03-23T02:59:21;34.40;;;33.37;;
80115;SDS011;69423;47.608;19.366;2024-03-23T02:59:52;34.00;;;33.03;;
80115;SDS011;69423;47.608;19.366;2024-03-23T03:00:24;34.77;;;33.50;;
80115;SDS011;69423;47.608;19.366;2024-03-23T03:00:55;35.80;;;34.63;;
80115;SDS011;69423;47.608;19.366;2024-03-23T03:01:26;35.43;;;34.40;;
80115;SDS011;69423;47.608;19.366;2024-03-23T03:01:57;34.47;;;33.40;;
80115;SDS011;69423;47.608;19.366;2024-03-23T03:02:30;34.17;;;32.77;;
80115;SDS011;69423;47.608;19.366;2024-03-23T03:03:01;35.33;;;33.93;;
80115;SDS011;69423;47.608;19.366;2024-03-23T03:03:33;35.00;;;33.87;;
80115;SDS011;69423;47.608;19.366;2024-03-23T03:04:04;34.70;;;33.10;;
80115;SDS011;69423;47.608;19.366;2024-03-23T03:04:35;36.77;;;34.97;;
80115;SDS011;69423;47.608;19.366;2024-03-23T03:05:07;37.10;;;35.40;;
80115;SDS011;69423;47.608;19.366;2024-03-23T03:05:39;36.53;;;34.90;;
80115;SDS011;69423;47.608;19.366;2024-03-23T03:06:10;35.80;;;34.40;;
80115;SDS011;69423;47.608;19.366;2024-03-23T03:06:41;35.23;;;34.07;;
80115;SDS011;69423;47.608;19.366;2024-03-23T03:07:12;35.93;;;34.73;;
80115;SDS011;69423;47.608;19.366;2024-03-23T03:07:43;36.43;;;35.07;;
80115;SDS011;69423;47.608;19.366;2024-03-23T03:08:14;36.43;;;34.97;;
80115;SDS011;69423;47.608;19.366;2024-03-23T03:08:45;34.53;;;33.27;;
80115;SDS011;69423;47.608;19.366;2024-03-23T03:09:16;34.30;;;33.23;;
80115;SDS011;69423;47.608;19.366;2024-03-23T03:09:47;34.37;;;33.03;;
80115;SDS011;69423;47.608;19.366;2024-03-23T03:10:18;34.80;;;33.33;;
80115;SDS011;69423;47.608;19.366;2024-03-23T03:10:49;35.17;;;33.80;;
80115;SDS011;69423;47.608;19.366;2024-03-23T03:11:20;35.43;;;34.20;;
80115;SDS011;69423;47.608;19.366;2024-03-23T03:11:51;36.77;;;35.40;;
80115;SDS011;69423;47.608;19.366;2024-03-23T03:12:22;36.63;;;35.30;;
80115;SDS011;69423;47.608;19.366;2024-03-23T03:12:53;36.37;;;34.90;;
80115;SDS011;69423;47.608;19.366;2024-03-23T03:13:24;35.87;;;34.53;;
80115;SDS011;69423;47.608;19.366;2024-03-23T03:13:55;34.70;;;33.67;;
80115;SDS011;69423;47.608;19.366;2024-03-23T03:14:26;34.33;;;33.30;;
80115;SDS011;69423;47.608;19.366;2024-03-23T03:14:58;35.00;;;33.77;;
80115;SDS011;69423;47.608;19.366;2024-03-23T03:15:29;34.33;;;33.03;;
80115;SDS011;69423;47.608;19.366;2024-03-23T03:16:00;35.23;;;34.13;;
80115;SDS011;69423;47.608;19.366;2024-03-23T03:16:31;35.87;;;34.80;;
80115;SDS011;69423;47.608;19.366;2024-03-23T03:17:02;35.33;;;34.27;;
80115;SDS011;69423;47.608;19.366;2024-03-23T03:17:34;36.00;;;34.50;;
80115;SDS011;69423;47.608;19.366;2024-03-23T03:19:37;36.03;;;34.40;;
80115;SDS011;69423;47.608;19.366;2024-03-23T03:20:08;34.70;;;33.50;;
80115;SDS011;69423;47.608;19.366;2024-03-23T03:20:43;35.07;;;33.83;;
80115;SDS011;69423;47.608;19.366;2024-03-23T03:21:14;33.33;;;32.17;;
80115;SDS011;69423;47.608;19.366;2024-03-23T03:21:47;34.73;;;33.40;;
80115;SDS011;69423;47.608;19.366;2024-03-23T03:22:18;34.93;;;33.50;;
80115;SDS011;69423;47.608;19.366;2024-03-23T03:22:49;35.07;;;33.93;;
80115;SDS011;69423;47.608;19.366;2024-03-23T03:23:20;35.00;;;33.70;;
80115;SDS011;69423;47.608;19.366;2024-03-23T03:23:51;36.30;;;34.60;;
80115;SDS011;69423;47.608;19.366;2024-03-23T03:24:22;35.73;;;34.30;;
80115;SDS011;69423;47.608;19.366;2024-03-23T03:24:53;35.47;;;34.03;;
80115;SDS011;69423;47.608;19.366;2024-03-23T03:25:24;35.03;;;33.50;;
80115;SDS011;69423;47.608;19.366;2024-03-23T03:25:55;35.80;;;34.00;;
80115;SDS011;69423;47.608;19.366;2024-03-23T03:26:27;35.63;;;34.10;;
80115;SDS011;69423;47.608;19.366;2024-03-23T03:26:58;36.43;;;35.17;;
80115;SDS011;69423;47.608;19.366;2024-03-23T03:27:29;35.50;;;34.30;;
80115;SDS011;69423;47.608;19.366;2024-03-23T03:28:00;35.47;;;34.47;;
80115;SDS011;69423;47.608;19.366;2024-03-23T03:28:32;36.40;;;35.10;;
80115;SDS011;69423;47.608;19.366;2024-03-23T03:29:03;36.03;;;34.63;;
80115;SDS011;69423;47.608;19.366;2024-03-23T03:29:34;34.90;;;33.80;;
80115;SDS011;69423;47.608;19.366;2024-03-23T03:30:06;35.10;;;34.03;;
80115;SDS011;69423;47.608;19.366;2024-03-23T03:30:39;35.67;;;34.60;;
80115;SDS011;69423;47.608;19.366;2024-03-23T03:31:10;37.43;;;35.90;;
80115;SDS011;69423;47.608;19.366;2024-03-23T03:31:42;37.07;;;35.33;;
80115;SDS011;69423;47.608;19.366;2024-03-23T03:32:13;38.33;;;36.50;;
80115;SDS011;69423;47.608;19.366;2024-03-23T03:32:44;37.27;;;35.93;;
80115;SDS011;69423;47.608;19.366;2024-03-23T03:33:15;35.10;;;34.00;;
80115;SDS011;69423;47.608;19.366;2024-03-23T03:33:46;34.30;;;33.13;;
80115;SDS011;69423;47.608;19.366;2024-03-23T03:34:17;35.37;;;33.93;;
80115;SDS011;69423;47.608;19.366;2024-03-23T03:34:48;37.00;;;35.20;;
80115;SDS011;69423;47.608;19.366;2024-03-23T03:35:20;35.87;;;33.87;;
80115;SDS011;69423;47.608;19.366;2024-03-23T03:35:51;36.00;;;34.30;;
80115;SDS011;69423;47.608;19.366;2024-03-23T03:36:22;35.27;;;34.00;;
80115;SDS011;69423;47.608;19.366;2024-03-23T03:36:53;36.57;;;34.97;;
80115;SDS011;69423;47.608;19.366;2024-03-23T03:37:24;36.37;;;34.50;;
80115;SDS011;69423;47.608;19.366;2024-03-23T03:37:55;34.30;;;32.80;;
80115;SDS011;69423;47.608;19.366;2024-03-23T03:38:26;33.57;;;32.43;;
80115;SDS011;69423;47.608;19.366;2024-03-23T03:38:58;35.53;;;34.30;;
80115;SDS011;69423;47.608;19.366;2024-03-23T03:39:29;35.13;;;33.83;;
80115;SDS011;69423;47.608;19.366;2024-03-23T03:40:00;35.53;;;34.03;;
80115;SDS011;69423;47.608;19.366;2024-03-23T03:40:31;35.13;;;34.00;;
80115;SDS011;69423;47.608;19.366;2024-03-23T03:41:02;35.50;;;34.27;;
80115;SDS011;69423;47.608;19.366;2024-03-23T03:41:33;36.07;;;34.47;;
80115;SDS011;69423;47.608;19.366;2024-03-23T03:42:04;36.50;;;34.90;;
80115;SDS011;69423;47.608;19.366;2024-03-23T03:42:37;35.77;;;34.23;;
80115;SDS011;69423;47.608;19.366;2024-03-23T03:43:08;34.70;;;33.43;;
80115;SDS011;69423;47.608;19.366;2024-03-23T03:43:39;35.03;;;33.83;;
80115;SDS011;69423;47.608;19.366;2024-03-23T03:44:10;35.53;;;34.40;;
80115;SDS011;69423;47.608;19.366;2024-03-23T03:44:41;35.73;;;34.30;;
80115;SDS011;69423;47.608;19.366;2024-03-23T03:45:12;34.33;;;33.07;;
80115;SDS011;69423;47.608;19.366;2024-03-23T03:45:50;34.50;;;33.30;;
80115;SDS011;69423;47.608;19.366;2024-03-23T03:46:22;33.90;;;32.93;;
80115;SDS011;69423;47.608;19.366;2024-03-23T03:46:53;35.67;;;34.53;;
80115;SDS011;69423;47.608;19.366;2024-03-23T03:47:24;34.13;;;33.00;;
80115;SDS011;69423;47.608;19.366;2024-03-23T03:47:55;34.43;;;33.03;;
80115;SDS011;69423;47.608;19.366;2024-03-23T03:48:26;34.27;;;32.67;;
80115;SDS011;69423;47.608;19.366;2024-03-23T03:48:58;34.40;;;32.67;;
80115;SDS011;69423;47.608;19.366;2024-03-23T03:49:29;33.53;;;31.97;;
80115;SDS011;69423;47.608;19.366;2024-03-23T03:50:00;33.67;;;32.27;;
80115;SDS011;69423;47.608;19.366;2024-03-23T03:50:31;33.70;;;32.57;;
80115;SDS011;69423;47.608;19.366;2024-03-23T03:51:02;34.47;;;33.07;;
80115;SDS011;69423;47.608;19.366;2024-03-23T03:51:33;33.90;;;32.60;;
80115;SDS011;69423;47.608;19.366;2024-03-23T03:52:04;33.57;;;32.60;;
80115;SDS011;69423;47.608;19.366;2024-03-23T03:52:35;33.50;;;32.53;;
80115;SDS011;69423;47.608;19.366;2024-03-23T03:53:06;33.20;;;32.17;;
80115;SDS011;69423;47.608;19.366;2024-03-23T03:53:37;34.30;;;32.97;;
80115;SDS011;69423;47.608;19.366;2024-03-23T03:54:08;34.00;;;32.73;;
80115;SDS011;69423;47.608;19.366;2024-03-23T03:54:39;33.87;;;32.93;;
80115;SDS011;69423;47.608;19.366;2024-03-23T03:55:14;33.60;;;32.73;;